createdAt,value
2019-03-06T00:00:46.154Z,12.50
2019-03-06T00:03:15.503Z,10.65
2019-03-06T00:05:44.879Z,11.20
2019-03-06T00:08:13.931Z,11.10
2019-03-06T00:10:43.010Z,11.68
2019-03-06T00:13:11.973Z,11.30
2019-03-06T00:15:41.419Z,11.15
2019-03-06T00:18:10.380Z,11.60
2019-03-06T00:20:39.345Z,11.70
2019-03-06T00:23:08.230Z,11.15
2019-03-06T00:25:37.042Z,10.68
2019-03-06T00:28:06.067Z,12.30
2019-03-06T00:30:34.978Z,11.97
2019-03-06T00:33:04.373Z,12.05
2019-03-06T00:35:36.574Z,11.83
2019-03-06T00:38:05.814Z,11.43
2019-03-06T00:41:06.168Z,11.18
2019-03-06T00:43:35.222Z,11.10
2019-03-06T00:46:04.896Z,11.75
2019-03-06T00:48:34.231Z,12.30
2019-03-06T00:51:03.223Z,11.95
2019-03-06T00:53:32.251Z,12.05
2019-03-06T00:56:01.111Z,13.08
2019-03-06T00:58:30.099Z,11.70
2019-03-06T01:00:59.092Z,11.73
2019-03-06T01:03:27.969Z,11.48
2019-03-06T01:05:56.820Z,12.00
2019-03-06T01:08:25.812Z,12.35
2019-03-06T01:10:54.789Z,13.15
2019-03-06T01:13:23.690Z,13.18
2019-03-06T01:15:52.503Z,12.88
2019-03-06T01:18:21.320Z,12.45
2019-03-06T01:20:50.307Z,13.30
2019-03-06T01:23:19.211Z,12.75
2019-03-06T01:25:48.106Z,11.93
2019-03-06T01:28:17.368Z,11.18
2019-03-06T01:30:46.263Z,10.60
2019-03-06T01:33:26.520Z,11.35
2019-03-06T01:36:13.662Z,12.10
2019-03-06T01:39:02.253Z,10.10
2019-03-06T01:41:37.184Z,10.60
2019-03-06T01:44:10.883Z,10.68
2019-03-06T01:46:39.956Z,10.93
2019-03-06T01:49:09.364Z,11.33
2019-03-06T01:51:38.442Z,11.35
2019-03-06T01:54:07.409Z,11.25
2019-03-06T01:56:36.519Z,11.73
2019-03-06T01:59:05.858Z,13.40
2019-03-06T02:01:35.095Z,13.10
2019-03-06T02:04:04.522Z,12.82
2019-03-06T02:06:34.932Z,12.50
2019-03-06T02:09:05.656Z,11.63
2019-03-06T02:11:34.478Z,11.93
2019-03-06T02:14:03.728Z,11.15
2019-03-06T02:16:32.566Z,12.37
2019-03-06T02:19:02.509Z,11.68
2019-03-06T02:21:31.475Z,12.18
2019-03-06T02:24:01.012Z,11.60
2019-03-06T02:26:29.963Z,12.63
2019-03-06T02:28:58.907Z,11.28
2019-03-06T02:31:27.674Z,12.15
2019-03-06T02:33:56.610Z,12.07
2019-03-06T02:36:25.744Z,12.35
2019-03-06T02:38:54.731Z,10.23
2019-03-06T02:41:23.993Z,11.95
2019-03-06T02:43:53.393Z,10.68
2019-03-06T02:46:22.219Z,10.70
2019-03-06T02:48:51.379Z,11.18
2019-03-06T02:51:20.227Z,10.98
2019-03-06T02:53:49.439Z,11.68
2019-03-06T02:56:18.472Z,12.23
2019-03-06T02:59:01.389Z,12.53
2019-03-06T03:02:01.700Z,13.35
2019-03-06T03:04:55.679Z,11.40
2019-03-06T03:07:25.285Z,13.25
2019-03-06T03:09:54.125Z,12.30
2019-03-06T03:12:22.923Z,12.90
2019-03-06T03:14:51.777Z,12.88
2019-03-06T03:17:20.527Z,12.10
2019-03-06T03:19:49.750Z,13.22
2019-03-06T03:22:18.660Z,12.98
2019-03-06T03:24:47.559Z,15.55
2019-03-06T03:27:16.853Z,14.15
2019-03-06T03:29:45.759Z,13.98
2019-03-06T03:32:15.080Z,13.70
2019-03-06T03:34:44.049Z,13.00
2019-03-06T03:37:13.139Z,13.20
2019-03-06T03:39:41.991Z,11.85
2019-03-06T03:42:10.967Z,11.28
2019-03-06T03:44:39.984Z,12.00
2019-03-06T03:47:08.759Z,11.00
2019-03-06T03:49:37.659Z,10.45
2019-03-06T03:52:06.773Z,11.90
2019-03-06T03:54:35.906Z,12.23
2019-03-06T03:57:05.988Z,11.30
2019-03-06T03:59:35.127Z,13.25
2019-03-06T04:02:04.214Z,12.18
2019-03-06T04:04:33.058Z,12.88
2019-03-06T04:07:02.031Z,12.60
2019-03-06T04:09:31.275Z,12.60
2019-03-06T04:12:00.554Z,12.58
2019-03-06T04:14:29.533Z,12.18
2019-03-06T04:16:58.522Z,12.33
2019-03-06T04:19:27.885Z,10.50
2019-03-06T04:21:56.799Z,10.58
2019-03-06T04:24:26.070Z,10.03
2019-03-06T04:26:55.332Z,9.30
2019-03-06T04:29:24.091Z,8.83
2019-03-06T04:31:52.906Z,9.35
2019-03-06T04:34:21.878Z,9.30
2019-03-06T04:36:51.055Z,10.15
2019-03-06T04:39:20.000Z,8.90
2019-03-06T04:41:49.240Z,7.95
2019-03-06T04:44:18.089Z,8.75
2019-03-06T04:46:47.111Z,8.33
2019-03-06T04:49:16.019Z,8.13
2019-03-06T04:51:44.983Z,9.33
2019-03-06T04:54:13.814Z,11.03
2019-03-06T04:56:43.220Z,8.50
2019-03-06T04:59:12.071Z,8.45
2019-03-06T05:01:40.963Z,8.83
2019-03-06T05:04:09.997Z,8.90
2019-03-06T05:06:38.975Z,8.83
2019-03-06T05:09:08.337Z,9.23
2019-03-06T05:11:37.197Z,9.78
2019-03-06T05:14:06.031Z,10.15
2019-03-06T05:17:09.371Z,8.23
2019-03-06T05:19:39.182Z,8.70
2019-03-06T05:22:08.308Z,8.45
2019-03-06T05:24:37.214Z,9.05
2019-03-06T05:27:06.244Z,9.55
2019-03-06T05:29:35.142Z,8.85
2019-03-06T05:32:27.528Z,8.05
2019-03-06T05:34:56.972Z,7.12
2019-03-06T05:37:59.401Z,8.18
2019-03-06T05:40:29.230Z,7.83
2019-03-06T05:42:58.059Z,8.45
2019-03-06T05:45:26.917Z,8.00
2019-03-06T05:47:55.810Z,7.47
2019-03-06T05:50:24.575Z,7.37
2019-03-06T05:52:53.463Z,8.35
2019-03-06T05:55:22.482Z,8.90
2019-03-06T05:57:51.703Z,8.35
2019-03-06T06:00:22.036Z,8.68
2019-03-06T06:02:50.850Z,9.90
2019-03-06T06:05:19.784Z,7.60
2019-03-06T06:07:48.555Z,9.85
2019-03-06T06:10:17.566Z,9.83
2019-03-06T06:12:46.421Z,8.90
2019-03-06T06:15:15.403Z,9.90
2019-03-06T06:17:44.475Z,9.08
2019-03-06T06:20:13.674Z,8.30
2019-03-06T06:22:57.774Z,10.15
2019-03-06T06:25:27.553Z,9.00
2019-03-06T06:27:56.440Z,9.28
2019-03-06T06:30:25.291Z,9.40
2019-03-06T06:32:54.547Z,9.58
2019-03-06T06:35:23.700Z,9.43
2019-03-06T06:37:52.549Z,9.90
2019-03-06T06:40:21.701Z,10.40
2019-03-06T06:42:50.663Z,11.28
2019-03-06T06:45:19.534Z,9.35
2019-03-06T06:48:20.088Z,10.10
2019-03-06T06:51:19.318Z,10.55
2019-03-06T06:53:58.722Z,11.30
2019-03-06T06:57:09.204Z,10.50
2019-03-06T06:59:45.936Z,11.28
2019-03-06T07:03:16.303Z,10.38
2019-03-06T07:05:56.862Z,11.80
2019-03-06T07:08:57.483Z,12.68
2019-03-06T07:11:49.274Z,11.43
2019-03-06T07:14:24.503Z,11.97
2019-03-06T07:17:16.194Z,11.97
2019-03-06T07:19:56.403Z,13.25
2019-03-06T07:22:45.035Z,14.03
2019-03-06T07:25:27.566Z,13.65
2019-03-06T07:28:12.417Z,13.60
2019-03-06T07:31:06.457Z,14.23
2019-03-06T07:34:00.528Z,14.38
2019-03-06T07:37:04.285Z,16.67
2019-03-06T07:39:56.292Z,15.43
2019-03-06T07:42:59.587Z,14.35
2019-03-06T07:46:01.715Z,15.95
2019-03-06T07:48:44.533Z,16.30
2019-03-06T07:51:32.025Z,17.60
2019-03-06T07:54:32.472Z,17.35
2019-03-06T07:57:23.681Z,17.27
2019-03-06T07:59:52.530Z,17.95
2019-03-06T08:02:25.377Z,17.67
2019-03-06T08:04:54.624Z,18.12
2019-03-06T08:07:23.622Z,16.95
2019-03-06T08:09:52.652Z,18.87
2019-03-06T08:12:49.804Z,18.62
2019-03-06T08:15:36.500Z,19.40
2019-03-06T08:18:23.469Z,18.85
2019-03-06T08:21:01.029Z,19.23
2019-03-06T08:24:01.343Z,21.15
2019-03-06T08:26:30.444Z,20.33
2019-03-06T08:28:59.731Z,19.90
2019-03-06T08:31:37.624Z,21.37
2019-03-06T08:34:06.610Z,20.90
2019-03-06T08:36:35.417Z,22.40
2019-03-06T08:39:13.914Z,24.10
2019-03-06T08:41:43.100Z,23.93
2019-03-06T08:44:12.400Z,24.23
2019-03-06T08:46:48.912Z,24.53
2019-03-06T08:49:40.130Z,26.57
2019-03-06T08:52:34.438Z,26.10
2019-03-06T08:55:11.208Z,27.27
2019-03-06T08:57:48.430Z,27.60
2019-03-06T09:00:30.736Z,28.47
2019-03-06T09:03:14.096Z,30.30
2019-03-06T09:05:51.315Z,27.97
2019-03-06T09:08:37.241Z,27.30
2019-03-06T09:11:40.729Z,27.90
2019-03-06T09:14:20.308Z,28.27
2019-03-06T09:17:06.924Z,29.37
2019-03-06T09:20:13.432Z,30.30
2019-03-06T09:22:53.880Z,30.40
2019-03-06T09:25:32.374Z,27.47
2019-03-06T09:28:20.651Z,26.60
2019-03-06T09:30:59.388Z,27.90
2019-03-06T09:33:41.579Z,27.80
2019-03-06T09:36:32.881Z,29.40
2019-03-06T09:39:19.873Z,28.57
2019-03-06T09:42:18.548Z,27.10
2019-03-06T09:44:53.228Z,29.43
2019-03-06T09:47:31.685Z,28.37
2019-03-06T09:50:12.898Z,31.30
2019-03-06T09:52:53.677Z,30.60
2019-03-06T09:55:40.997Z,29.53
2019-03-06T09:58:17.426Z,26.97
2019-03-06T10:01:05.984Z,29.30
2019-03-06T10:04:09.638Z,29.73
2019-03-06T10:07:13.655Z,26.53
2019-03-06T10:10:03.233Z,28.30
2019-03-06T10:12:47.702Z,26.40
2019-03-06T10:15:37.174Z,26.63
2019-03-06T10:18:17.900Z,26.00
2019-03-06T10:20:48.638Z,25.10
2019-03-06T10:23:17.665Z,25.43
2019-03-06T10:25:46.874Z,25.10
2019-03-06T10:28:15.732Z,25.40
2019-03-06T10:30:44.968Z,25.13
2019-03-06T10:33:14.095Z,25.27
2019-03-06T10:35:43.101Z,26.30
2019-03-06T10:38:16.611Z,25.30
2019-03-06T10:40:42.765Z,28.30
2019-03-06T10:43:11.918Z,26.60
2019-03-06T10:48:11.817Z,26.23
2019-03-06T10:50:41.013Z,27.30
2019-03-06T10:53:09.911Z,25.93
2019-03-06T10:55:39.368Z,23.73
2019-03-06T10:58:08.583Z,25.00
2019-03-06T11:00:43.415Z,25.93
2019-03-06T11:03:12.399Z,24.40
2019-03-06T11:05:41.774Z,24.33
2019-03-06T11:08:10.622Z,25.60
2019-03-06T11:10:39.751Z,24.50
2019-03-06T11:13:11.174Z,27.90
2019-03-06T11:15:40.734Z,28.33
2019-03-06T11:18:09.922Z,27.07
2019-03-06T11:20:40.785Z,25.30
2019-03-06T11:23:10.072Z,27.13
2019-03-06T11:25:40.463Z,27.33
2019-03-06T11:28:11.133Z,27.83
2019-03-06T11:30:51.942Z,26.97
2019-03-06T11:33:22.375Z,28.40
2019-03-06T11:35:52.626Z,28.83
2019-03-06T11:38:21.890Z,29.00
2019-03-06T11:40:51.212Z,29.27
2019-03-06T11:43:20.371Z,28.70
2019-03-06T11:45:49.365Z,29.50
2019-03-06T11:48:18.518Z,31.60
2019-03-06T11:50:47.868Z,30.57
2019-03-06T11:53:16.839Z,31.57
2019-03-06T11:55:45.910Z,33.33
2019-03-06T11:58:17.234Z,31.63
2019-03-06T12:00:46.871Z,33.40
2019-03-06T12:03:17.849Z,30.77
2019-03-06T12:05:47.415Z,32.63
2019-03-06T12:08:16.928Z,33.73
2019-03-06T12:10:46.272Z,31.40
2019-03-06T12:13:16.281Z,30.80
2019-03-06T12:15:47.807Z,32.83
2019-03-06T12:18:16.858Z,31.07
2019-03-06T12:20:46.024Z,30.70
2019-03-06T12:23:14.851Z,30.63
2019-03-06T12:25:43.867Z,30.87
2019-03-06T12:28:14.758Z,29.00
2019-03-06T12:30:43.847Z,30.17
2019-03-06T12:33:20.743Z,31.77
2019-03-06T12:35:50.323Z,28.87
2019-03-06T12:38:19.380Z,29.80
2019-03-06T12:40:48.554Z,28.63
2019-03-06T12:43:17.433Z,30.47
2019-03-06T12:46:28.064Z,30.77
2019-03-06T12:49:11.233Z,30.93
2019-03-06T12:51:40.492Z,32.20
2019-03-06T12:54:09.787Z,30.33
2019-03-06T12:56:38.718Z,30.13
2019-03-06T12:59:08.126Z,30.47
2019-03-06T13:01:39.052Z,28.97
2019-03-06T13:04:07.641Z,28.50
2019-03-06T13:06:36.612Z,30.43
2019-03-06T13:09:13.808Z,27.50
2019-03-06T13:11:43.432Z,29.03
2019-03-06T13:14:12.302Z,29.43
2019-03-06T13:16:41.443Z,30.63
2019-03-06T13:19:10.349Z,29.20
2019-03-06T13:21:39.168Z,29.43
2019-03-06T13:24:08.182Z,28.30
2019-03-06T13:26:37.311Z,28.00
2019-03-06T13:29:06.366Z,28.00
2019-03-06T13:31:35.249Z,27.23
2019-03-06T13:34:26.685Z,26.97
2019-03-06T13:36:55.548Z,27.40
2019-03-06T13:39:24.463Z,27.23
2019-03-06T13:41:53.740Z,27.90
2019-03-06T13:44:22.606Z,27.80
2019-03-06T13:46:51.485Z,26.90
2019-03-06T13:49:20.490Z,26.87
2019-03-06T13:51:49.524Z,27.00
2019-03-06T13:54:18.411Z,26.77
2019-03-06T13:56:47.487Z,26.67
2019-03-06T13:59:16.341Z,26.90
2019-03-06T14:01:45.465Z,26.30
2019-03-06T14:04:15.120Z,26.10
2019-03-06T14:06:43.946Z,25.30
2019-03-06T14:09:14.002Z,26.07
2019-03-06T14:11:43.419Z,27.00
2019-03-06T14:14:12.202Z,25.07
2019-03-06T14:16:41.234Z,25.97
2019-03-06T14:19:10.129Z,25.10
2019-03-06T14:21:39.254Z,25.77
2019-03-06T14:24:08.140Z,25.80
2019-03-06T14:26:37.284Z,25.00
2019-03-06T14:29:06.537Z,25.67
2019-03-06T14:31:35.532Z,24.40
2019-03-06T14:34:04.443Z,26.43
2019-03-06T14:36:33.359Z,24.40
2019-03-06T14:39:02.680Z,28.23
2019-03-06T14:41:31.813Z,25.93
2019-03-06T14:44:00.792Z,24.90
2019-03-06T14:46:29.722Z,23.80
2019-03-06T14:48:58.845Z,23.90
2019-03-06T14:51:27.878Z,25.87
2019-03-06T14:53:56.864Z,24.90
2019-03-06T14:56:30.862Z,24.63
2019-03-06T14:58:59.707Z,24.80
2019-03-06T15:01:28.586Z,25.30
2019-03-06T15:03:58.032Z,23.80
2019-03-06T15:06:30.745Z,24.07
2019-03-06T15:08:59.657Z,24.40
2019-03-06T15:11:33.118Z,23.90
2019-03-06T15:14:03.499Z,23.67
2019-03-06T15:16:32.395Z,24.70
2019-03-06T15:19:01.324Z,23.73
2019-03-06T15:21:30.150Z,24.30
2019-03-06T15:23:59.144Z,24.10
2019-03-06T15:26:28.050Z,25.00
2019-03-06T15:28:56.951Z,24.13
2019-03-06T15:31:25.940Z,23.73
2019-03-06T15:33:54.811Z,23.87
2019-03-06T15:36:24.852Z,24.80
2019-03-06T15:38:53.873Z,23.03
2019-03-06T15:41:22.704Z,24.27
2019-03-06T15:43:51.657Z,23.97
2019-03-06T15:46:20.693Z,24.47
2019-03-06T15:48:49.667Z,26.10
2019-03-06T15:51:18.731Z,24.40
2019-03-06T15:53:47.586Z,24.60
2019-03-06T15:56:16.488Z,24.80
2019-03-06T15:58:45.388Z,24.03
2019-03-06T16:01:14.527Z,23.80
2019-03-06T16:03:43.503Z,23.83
2019-03-06T16:06:20.129Z,25.33
2019-03-06T16:08:43.368Z,24.70
2019-03-06T16:11:13.027Z,24.20
2019-03-06T16:13:41.998Z,23.70
2019-03-06T16:16:10.984Z,24.43
2019-03-06T16:18:40.237Z,24.23
2019-03-06T16:21:10.234Z,23.63
2019-03-06T16:23:39.170Z,24.30
2019-03-06T16:26:08.096Z,23.43
2019-03-06T16:28:37.046Z,23.33
2019-03-06T16:31:09.283Z,24.33
2019-03-06T16:33:40.206Z,25.07
2019-03-06T16:36:09.979Z,24.17
2019-03-06T16:38:38.891Z,26.33
2019-03-06T16:41:07.930Z,26.70
2019-03-06T16:43:37.616Z,25.70
2019-03-06T16:46:07.883Z,23.67
2019-03-06T16:48:37.763Z,24.00
2019-03-06T16:51:09.142Z,23.90
2019-03-06T16:53:38.095Z,23.83
2019-03-06T16:56:07.082Z,24.00
2019-03-06T16:58:36.151Z,23.83
2019-03-06T17:01:05.675Z,23.73
2019-03-06T17:03:34.638Z,24.30
2019-03-06T17:06:03.716Z,24.00
2019-03-06T17:08:32.631Z,23.93
2019-03-06T17:11:01.568Z,23.73
2019-03-06T17:13:30.474Z,24.00
2019-03-06T17:15:59.720Z,23.80
2019-03-06T17:18:29.081Z,24.57
2019-03-06T17:20:58.299Z,23.50
2019-03-06T17:23:27.244Z,24.57
2019-03-06T17:25:57.007Z,27.93
2019-03-06T17:28:45.617Z,25.93
2019-03-06T17:31:18.866Z,24.30
2019-03-06T17:33:47.863Z,24.53
2019-03-06T17:36:17.472Z,24.13
2019-03-06T17:38:46.768Z,25.17
2019-03-06T17:41:15.652Z,24.37
2019-03-06T17:43:44.670Z,27.30
2019-03-06T17:46:13.625Z,23.10
2019-03-06T17:48:43.089Z,22.90
2019-03-06T17:51:12.000Z,23.63
2019-03-06T17:53:41.311Z,23.60
2019-03-06T17:56:10.278Z,23.50
2019-03-06T17:58:39.217Z,23.60
2019-03-06T18:01:12.004Z,23.30
2019-03-06T18:03:45.051Z,23.50
2019-03-06T18:06:14.302Z,24.77
2019-03-06T18:08:43.379Z,24.20
2019-03-06T18:11:13.397Z,23.90
2019-03-06T18:13:43.511Z,23.10
2019-03-06T18:16:12.423Z,23.30
2019-03-06T18:18:41.529Z,23.50
2019-03-06T18:21:11.087Z,24.40
2019-03-06T18:23:39.980Z,24.77
2019-03-06T18:26:09.028Z,23.93
2019-03-06T18:28:38.048Z,22.73
2019-03-06T18:31:07.453Z,23.10
2019-03-06T18:33:36.614Z,23.77
2019-03-06T18:36:05.773Z,24.00
2019-03-06T18:38:35.226Z,24.20
2019-03-06T18:41:04.840Z,23.60
2019-03-06T18:43:33.772Z,24.47
2019-03-06T18:46:02.945Z,22.80
2019-03-06T18:48:32.106Z,27.50
2019-03-06T18:51:01.094Z,23.90
2019-03-06T18:53:29.915Z,24.20
2019-03-06T18:55:59.623Z,23.90
2019-03-06T18:58:28.644Z,23.93
2019-03-06T19:00:57.882Z,22.90
2019-03-06T19:03:26.759Z,23.23
2019-03-06T19:05:55.675Z,23.10
2019-03-06T19:08:31.133Z,24.70
2019-03-06T19:10:55.275Z,23.70
2019-03-06T19:13:24.215Z,23.17
2019-03-06T19:15:53.847Z,23.43
2019-03-06T19:18:22.835Z,23.73
2019-03-06T19:20:52.099Z,24.30
2019-03-06T19:23:20.932Z,24.43
2019-03-06T19:25:49.928Z,23.57
2019-03-06T19:28:18.842Z,23.00
2019-03-06T19:30:47.896Z,23.83
2019-03-06T19:33:16.880Z,23.87
2019-03-06T19:35:45.767Z,23.40
2019-03-06T19:38:14.568Z,23.07
2019-03-06T19:40:43.505Z,23.70
2019-03-06T19:43:12.380Z,23.60
2019-03-06T19:45:42.583Z,23.70
2019-03-06T19:48:11.894Z,23.10
2019-03-06T19:50:41.168Z,23.67
2019-03-06T19:53:10.091Z,23.90
2019-03-06T19:55:39.022Z,24.23
2019-03-06T19:58:08.098Z,24.37
2019-03-06T20:00:37.054Z,24.30
2019-03-06T20:03:07.750Z,23.93
2019-03-06T20:05:37.690Z,24.50
2019-03-06T20:08:11.546Z,24.40
2019-03-06T20:10:40.868Z,23.70
2019-03-06T20:13:10.269Z,24.00
2019-03-06T20:15:43.995Z,23.67
2019-03-06T20:18:14.501Z,22.90
2019-03-06T20:20:43.560Z,22.43
2019-03-06T20:23:12.470Z,24.40
2019-03-06T20:25:41.895Z,22.97
2019-03-06T20:28:10.946Z,22.93
2019-03-06T20:30:39.960Z,23.03
2019-03-06T20:33:09.543Z,22.47
2019-03-06T20:35:38.671Z,24.30
2019-03-06T20:38:07.574Z,23.50
2019-03-06T20:40:36.441Z,24.10
2019-03-06T20:43:05.479Z,24.70
2019-03-06T20:45:34.477Z,23.90
2019-03-06T20:48:04.079Z,24.40
2019-03-06T20:50:34.706Z,25.57
2019-03-06T20:53:04.744Z,24.83
2019-03-06T20:55:33.897Z,25.00
2019-03-06T20:58:03.356Z,23.17
2019-03-06T21:00:32.250Z,24.47
2019-03-06T21:03:01.101Z,24.43
2019-03-06T21:05:30.507Z,23.87
2019-03-06T21:07:59.609Z,25.37
2019-03-06T21:10:28.467Z,23.40
2019-03-06T21:12:57.509Z,24.30
2019-03-06T21:15:26.432Z,24.07
2019-03-06T21:17:55.268Z,24.40
2019-03-06T21:20:24.184Z,24.67
2019-03-06T21:22:53.161Z,24.43
2019-03-06T21:25:23.099Z,24.53
2019-03-06T21:27:52.435Z,26.10
2019-03-06T21:30:27.782Z,23.57
2019-03-06T21:32:56.618Z,23.77
2019-03-06T21:35:25.470Z,24.00
2019-03-06T21:37:54.394Z,25.27
2019-03-06T21:40:23.611Z,24.30
2019-03-06T21:42:52.807Z,24.53
2019-03-06T21:45:22.059Z,24.50
2019-03-06T21:47:51.017Z,24.37
2019-03-06T21:50:19.967Z,24.17
2019-03-06T21:52:48.757Z,25.57
2019-03-06T21:55:17.663Z,24.43
2019-03-06T21:57:47.092Z,24.13
2019-03-06T22:00:18.801Z,25.40
2019-03-06T22:02:47.799Z,25.20
2019-03-06T22:05:16.617Z,23.83
2019-03-06T22:07:45.620Z,24.10
2019-03-06T22:10:16.279Z,24.83
2019-03-06T22:12:45.222Z,25.53
2019-03-06T22:15:14.896Z,24.83
2019-03-06T22:17:43.791Z,23.90
2019-03-06T22:20:13.433Z,24.57
2019-03-06T22:22:42.631Z,23.77
2019-03-06T22:25:12.448Z,23.97
2019-03-06T22:27:41.256Z,24.77
2019-03-06T22:30:13.421Z,23.97
2019-03-06T22:32:42.249Z,25.10
2019-03-06T22:35:11.361Z,24.77
2019-03-06T22:37:40.267Z,24.13
2019-03-06T22:40:11.092Z,24.80
2019-03-06T22:42:39.989Z,24.90
2019-03-06T22:45:09.625Z,24.40
2019-03-06T22:47:39.577Z,23.60
2019-03-06T22:50:10.126Z,24.10
2019-03-06T22:52:38.950Z,24.33
2019-03-06T22:55:09.584Z,23.50
2019-03-06T22:57:38.395Z,24.40
2019-03-06T23:00:15.839Z,24.30
2019-03-06T23:02:45.273Z,24.50
2019-03-06T23:05:14.139Z,25.13
2019-03-06T23:07:43.360Z,24.33
2019-03-06T23:10:12.207Z,26.30
2019-03-06T23:12:41.371Z,24.87
2019-03-06T23:15:10.276Z,25.23
2019-03-06T23:17:39.102Z,24.67
2019-03-06T23:20:08.074Z,24.80
2019-03-06T23:22:36.995Z,25.33
2019-03-06T23:25:05.987Z,24.47
2019-03-06T23:27:34.840Z,24.77
2019-03-06T23:30:04.697Z,24.63
2019-03-06T23:32:33.438Z,25.20
2019-03-06T23:35:02.460Z,24.90
2019-03-06T23:37:31.399Z,24.83
2019-03-06T23:40:00.273Z,24.17
2019-03-06T23:42:29.140Z,25.90
2019-03-06T23:44:58.032Z,26.10
2019-03-06T23:47:26.810Z,25.53
2019-03-06T23:49:56.145Z,23.90
2019-03-06T23:52:29.810Z,24.33
2019-03-06T23:54:58.948Z,25.90
2019-03-06T23:57:27.786Z,23.70
2019-03-06T23:59:56.494Z,24.53
